createdAt,value
2022-12-05T00:01:36.828Z,45.20
2022-12-05T00:04:08.037Z,50.13
2022-12-05T00:06:37.577Z,45.13
2022-12-05T00:09:07.414Z,51.83
2022-12-05T00:11:38.620Z,39.60
2022-12-05T00:14:08.657Z,61.60
2022-12-05T00:16:40.432Z,57.00
2022-12-05T00:19:10.034Z,50.57
2022-12-05T00:21:39.024Z,48.47
2022-12-05T00:24:10.003Z,45.40
2022-12-05T00:26:38.255Z,43.70
2022-12-05T00:29:06.539Z,50.90
2022-12-05T00:31:39.095Z,48.63
2022-12-05T00:34:07.266Z,56.67
2022-12-05T00:36:36.331Z,48.67
2022-12-05T00:39:07.916Z,49.10
2022-12-05T00:41:36.075Z,36.13
2022-12-05T00:44:06.078Z,43.17
2022-12-05T00:46:35.190Z,50.10
2022-12-05T00:49:08.116Z,47.90
2022-12-05T00:51:38.081Z,53.60
2022-12-05T00:54:08.511Z,47.00
2022-12-05T00:56:36.758Z,59.07
2022-12-05T00:59:06.746Z,51.50
2022-12-05T01:01:37.584Z,56.50
2022-12-05T01:04:10.739Z,42.93
2022-12-05T01:06:39.327Z,45.20
2022-12-05T01:09:07.273Z,47.40
2022-12-05T01:11:41.031Z,36.60
2022-12-05T01:14:09.686Z,45.07
2022-12-05T01:16:39.936Z,47.77
2022-12-05T01:19:13.325Z,44.73
2022-12-05T01:21:41.334Z,48.53
2022-12-05T01:24:09.951Z,44.60
2022-12-05T01:26:38.389Z,52.30
2022-12-05T01:29:09.484Z,50.80
2022-12-05T01:31:38.787Z,41.57
2022-12-05T01:34:11.472Z,43.00
2022-12-05T01:36:39.701Z,46.20
2022-12-05T01:39:08.449Z,42.17
2022-12-05T01:41:38.528Z,46.33
2022-12-05T01:44:08.812Z,48.20
2022-12-05T01:46:38.163Z,32.40
2022-12-05T01:49:12.605Z,52.17
2022-12-05T01:51:44.106Z,45.63
2022-12-05T01:54:13.430Z,42.93
2022-12-05T01:56:43.775Z,47.80
2022-12-05T01:59:12.985Z,45.83
2022-12-05T02:01:41.926Z,66.67
2022-12-05T02:04:11.918Z,52.33
2022-12-05T02:06:40.064Z,49.47
2022-12-05T02:09:08.406Z,66.57
2022-12-05T02:11:40.122Z,44.10
2022-12-05T02:14:21.523Z,48.80
2022-12-05T02:16:59.721Z,45.87
2022-12-05T02:20:01.824Z,48.80
2022-12-05T02:22:57.669Z,57.03
2022-12-05T02:25:46.629Z,45.77
2022-12-05T02:28:41.762Z,63.13
2022-12-05T02:31:14.768Z,51.73
2022-12-05T02:33:48.570Z,53.80
2022-12-05T02:36:23.944Z,55.30
2022-12-05T02:39:01.465Z,47.23
2022-12-05T02:41:34.270Z,45.20
2022-12-05T02:44:06.478Z,47.77
2022-12-05T02:46:39.024Z,40.30
2022-12-05T02:49:09.837Z,40.73
2022-12-05T02:51:43.418Z,40.33
2022-12-05T02:54:16.668Z,50.20
2022-12-05T02:56:47.321Z,35.83
2022-12-05T02:59:21.418Z,47.40
2022-12-05T03:01:53.115Z,40.70
2022-12-05T03:04:24.228Z,39.83
2022-12-05T03:06:55.624Z,38.33
2022-12-05T03:09:26.874Z,53.20
2022-12-05T03:11:59.743Z,42.03
2022-12-05T03:14:30.671Z,50.03
2022-12-05T03:17:03.820Z,37.93
2022-12-05T03:19:47.042Z,56.37
2022-12-05T03:22:20.539Z,32.10
2022-12-05T03:24:48.569Z,35.37
2022-12-05T03:27:25.028Z,37.70
2022-12-05T03:29:57.682Z,40.77
2022-12-05T03:32:34.754Z,35.40
2022-12-05T03:35:09.753Z,35.53
2022-12-05T03:37:47.129Z,42.33
2022-12-05T03:40:26.967Z,40.27
2022-12-05T03:43:00.763Z,35.03
2022-12-05T03:45:34.393Z,43.90
2022-12-05T03:48:11.520Z,36.67
2022-12-05T03:50:42.591Z,36.33
2022-12-05T03:53:20.122Z,31.73
2022-12-05T03:55:54.111Z,36.27
2022-12-05T03:58:27.835Z,36.87
2022-12-05T04:01:00.627Z,30.60
2022-12-05T04:03:39.762Z,44.43
2022-12-05T04:06:14.335Z,28.47
2022-12-05T04:08:46.821Z,35.73
2022-12-05T04:11:19.345Z,36.13
2022-12-05T04:13:51.411Z,37.73
2022-12-05T04:16:41.486Z,32.43
2022-12-05T04:19:16.467Z,33.10
2022-12-05T04:21:47.404Z,37.73
2022-12-05T04:24:35.068Z,28.90
2022-12-05T04:27:16.532Z,26.53
2022-12-05T04:29:58.367Z,33.17
2022-12-05T04:32:31.301Z,35.50
2022-12-05T04:35:06.850Z,31.20
2022-12-05T04:37:40.985Z,43.53
2022-12-05T04:40:13.774Z,42.03
2022-12-05T04:42:43.916Z,31.00
2022-12-05T04:45:14.213Z,33.80
2022-12-05T04:47:45.829Z,37.90
2022-12-05T04:50:16.139Z,31.67
2022-12-05T04:52:47.878Z,31.77
2022-12-05T04:55:20.208Z,37.57
2022-12-05T04:57:58.677Z,25.63
2022-12-05T05:00:29.492Z,40.00
2022-12-05T05:03:04.981Z,30.20
2022-12-05T05:05:36.516Z,31.53
2022-12-05T05:08:04.847Z,30.50
2022-12-05T05:10:36.651Z,25.43
2022-12-05T05:13:04.646Z,29.40
2022-12-05T05:15:32.654Z,29.60
2022-12-05T05:18:00.632Z,26.17
2022-12-05T05:20:28.562Z,23.70
2022-12-05T05:22:59.406Z,35.10
2022-12-05T05:25:27.575Z,37.33
2022-12-05T05:27:57.165Z,31.73
2022-12-05T05:30:26.039Z,33.80
2022-12-05T05:32:54.571Z,31.87
2022-12-05T05:35:22.704Z,24.20
2022-12-05T05:37:50.596Z,21.20
2022-12-05T05:40:20.187Z,21.13
2022-12-05T05:42:50.703Z,28.73
2022-12-05T05:45:19.120Z,23.30
2022-12-05T05:47:49.117Z,24.90
2022-12-05T05:50:21.399Z,23.17
2022-12-05T05:52:50.175Z,36.90
2022-12-05T05:55:19.930Z,22.57
2022-12-05T05:57:47.911Z,28.73
2022-12-05T06:00:17.091Z,27.40
2022-12-05T06:02:45.133Z,20.03
2022-12-05T06:05:13.345Z,22.23
2022-12-05T06:07:41.380Z,22.83
2022-12-05T06:10:10.343Z,18.60
2022-12-05T06:12:39.598Z,22.57
2022-12-05T06:15:09.059Z,29.47
2022-12-05T06:17:37.166Z,20.70
2022-12-05T06:20:05.974Z,28.70
2022-12-05T06:22:34.228Z,22.53
2022-12-05T06:25:02.186Z,19.20
2022-12-05T06:27:31.519Z,22.27
2022-12-05T06:30:01.165Z,18.17
2022-12-05T06:32:29.555Z,22.80
2022-12-05T06:34:57.543Z,20.63
2022-12-05T06:37:25.505Z,25.40
2022-12-05T06:39:53.422Z,17.33
2022-12-05T06:42:22.393Z,20.43
2022-12-05T06:44:50.511Z,22.67
2022-12-05T06:47:19.753Z,21.77
2022-12-05T06:49:47.631Z,20.83
2022-12-05T06:52:15.547Z,19.90
2022-12-05T06:54:43.501Z,16.53
2022-12-05T06:57:11.364Z,11.70
2022-12-05T06:59:39.375Z,21.87
2022-12-05T07:02:08.458Z,17.13
2022-12-05T07:04:37.969Z,14.53
2022-12-05T07:07:05.979Z,18.57
2022-12-05T07:09:48.212Z,20.10
2022-12-05T07:12:18.655Z,21.97
2022-12-05T07:14:49.136Z,19.70
2022-12-05T07:17:18.079Z,13.43
2022-12-05T07:19:48.563Z,12.67
2022-12-05T07:22:16.733Z,18.57
2022-12-05T07:24:44.914Z,19.30
2022-12-05T07:27:12.850Z,16.70
2022-12-05T07:29:40.980Z,18.20
2022-12-05T07:32:09.441Z,23.20
2022-12-05T07:34:38.728Z,18.17
2022-12-05T07:37:08.197Z,18.33
2022-12-05T07:39:36.196Z,20.37
2022-12-05T07:42:04.118Z,16.57
2022-12-05T07:44:32.353Z,16.27
2022-12-05T07:47:00.676Z,18.70
2022-12-05T07:49:28.825Z,16.80
2022-12-05T07:51:56.817Z,13.97
2022-12-05T07:54:26.255Z,16.50
2022-12-05T07:56:54.310Z,16.90
2022-12-05T07:59:22.233Z,16.93
2022-12-05T08:01:50.358Z,14.30
2022-12-05T08:04:18.678Z,12.03
2022-12-05T08:06:46.707Z,12.80
2022-12-05T08:09:14.697Z,20.07
2022-12-05T08:11:48.204Z,12.43
2022-12-05T08:14:19.080Z,14.20
2022-12-05T08:16:47.199Z,16.73
2022-12-05T08:19:17.078Z,14.03
2022-12-05T08:21:45.453Z,12.10
2022-12-05T08:24:13.936Z,13.03
2022-12-05T08:26:43.374Z,13.27
2022-12-05T08:29:13.199Z,15.70
2022-12-05T08:31:43.429Z,13.63
2022-12-05T08:34:16.365Z,13.87
2022-12-05T08:36:45.134Z,19.37
2022-12-05T08:39:16.099Z,17.23
2022-12-05T08:41:45.888Z,17.00
2022-12-05T08:44:16.616Z,17.83
2022-12-05T08:46:46.388Z,16.20
2022-12-05T08:49:15.255Z,18.80
2022-12-05T08:51:44.379Z,12.53
2022-12-05T08:54:13.082Z,16.47
2022-12-05T08:56:42.033Z,11.47
2022-12-05T08:59:11.564Z,16.47
2022-12-05T09:01:40.605Z,13.53
2022-12-05T09:04:09.668Z,17.77
2022-12-05T09:06:41.552Z,14.50
2022-12-05T09:09:11.657Z,17.33
2022-12-05T09:11:49.298Z,13.63
2022-12-05T09:14:19.353Z,13.20
2022-12-05T09:16:48.779Z,13.80
2022-12-05T09:19:20.705Z,17.47
2022-12-05T09:21:55.023Z,15.57
2022-12-05T09:24:26.078Z,16.07
2022-12-05T09:26:54.198Z,15.80
2022-12-05T09:29:25.582Z,15.10
2022-12-05T09:31:55.676Z,20.37
2022-12-05T09:34:26.017Z,20.20
2022-12-05T09:37:10.346Z,17.80
2022-12-05T09:39:43.884Z,15.27
2022-12-05T09:42:32.031Z,20.07
2022-12-05T09:45:24.857Z,14.10
2022-12-05T09:47:58.535Z,23.27
2022-12-05T09:50:28.807Z,19.27
2022-12-05T09:53:05.948Z,18.60
2022-12-05T09:55:44.814Z,19.53
2022-12-05T09:58:26.241Z,15.50
2022-12-05T10:01:02.052Z,19.70
2022-12-05T10:03:38.854Z,21.47
2022-12-05T10:06:16.502Z,30.63
2022-12-05T10:09:21.283Z,14.20
2022-12-05T10:11:58.520Z,20.70
2022-12-05T10:14:36.837Z,19.77
2022-12-05T10:17:12.206Z,20.30
2022-12-05T10:19:45.185Z,20.67
2022-12-05T10:22:20.679Z,18.67
2022-12-05T10:24:53.813Z,17.23
2022-12-05T10:27:25.514Z,17.13
2022-12-05T10:30:00.656Z,16.33
2022-12-05T10:32:34.263Z,24.43
2022-12-05T10:35:16.767Z,17.33
2022-12-05T10:37:49.815Z,14.43
2022-12-05T10:40:18.483Z,19.03
2022-12-05T10:42:48.028Z,20.60
2022-12-05T10:45:19.308Z,20.07
2022-12-05T10:47:50.633Z,16.67
2022-12-05T10:50:26.825Z,22.17
2022-12-05T10:52:57.404Z,12.57
2022-12-05T10:55:31.265Z,19.13
2022-12-05T10:58:17.322Z,15.30
2022-12-05T11:00:49.163Z,17.83
2022-12-05T11:03:28.559Z,21.17
2022-12-05T11:05:58.616Z,14.30
2022-12-05T11:08:56.125Z,14.97
2022-12-05T11:11:21.933Z,25.47
2022-12-05T11:13:54.860Z,27.03
2022-12-05T11:16:26.079Z,19.47
2022-12-05T11:18:55.768Z,15.53
2022-12-05T11:21:24.053Z,18.03
2022-12-05T11:23:52.151Z,17.20
2022-12-05T11:26:34.767Z,15.10
2022-12-05T11:29:02.993Z,28.77
2022-12-05T11:31:33.234Z,13.47
2022-12-05T11:34:11.621Z,11.80
2022-12-05T11:36:44.376Z,15.50
2022-12-05T11:39:14.286Z,11.77
2022-12-05T11:41:54.565Z,16.67
2022-12-05T11:44:58.362Z,14.90
2022-12-05T11:47:41.602Z,20.60
2022-12-05T11:50:24.073Z,12.23
2022-12-05T11:53:02.588Z,20.50
2022-12-05T11:55:34.579Z,14.53
2022-12-05T11:58:25.306Z,18.97
2022-12-05T12:01:03.782Z,14.77
2022-12-05T12:04:08.911Z,15.27
2022-12-05T12:06:52.667Z,15.33
2022-12-05T12:09:31.713Z,11.47
2022-12-05T12:12:07.578Z,14.90
2022-12-05T12:14:44.583Z,16.13
2022-12-05T12:17:22.132Z,15.57
2022-12-05T12:23:56.275Z,10.37
2022-12-05T12:26:34.447Z,20.90
2022-12-05T12:29:12.663Z,14.90
2022-12-05T12:31:55.735Z,19.00
2022-12-05T12:34:41.372Z,20.20
2022-12-05T12:37:19.299Z,13.13
2022-12-05T12:39:53.533Z,18.07
2022-12-05T12:42:28.895Z,18.83
2022-12-05T12:45:21.473Z,17.97
2022-12-05T12:48:10.633Z,22.70
2022-12-05T12:50:44.334Z,13.87
2022-12-05T12:53:46.840Z,19.17
2022-12-05T12:56:27.695Z,15.87
2022-12-05T12:59:04.225Z,16.53
2022-12-05T13:01:39.396Z,18.87
2022-12-05T13:04:13.383Z,17.63
2022-12-05T13:06:47.359Z,18.90
2022-12-05T13:09:23.574Z,13.53
2022-12-05T13:11:54.703Z,21.30
2022-12-05T13:14:27.468Z,20.80
2022-12-05T13:16:57.011Z,15.17
2022-12-05T13:19:30.712Z,21.50
2022-12-05T13:21:59.444Z,23.73
2022-12-05T13:24:29.251Z,24.13
2022-12-05T13:27:02.119Z,27.53
2022-12-05T13:29:36.013Z,27.27
2022-12-05T13:32:06.495Z,23.03
2022-12-05T13:34:47.058Z,19.60
2022-12-05T13:37:38.940Z,20.03
2022-12-05T13:40:28.988Z,24.73
2022-12-05T13:43:06.396Z,17.37
2022-12-05T13:45:35.391Z,21.20
2022-12-05T13:48:21.922Z,26.13
2022-12-05T13:50:55.559Z,21.47
2022-12-05T13:53:33.331Z,19.87
2022-12-05T13:56:04.541Z,23.43
2022-12-05T13:58:45.888Z,26.53
2022-12-05T14:01:55.349Z,34.30
2022-12-05T14:04:50.627Z,25.93
2022-12-05T14:07:43.201Z,28.87
2022-12-05T14:10:16.756Z,25.27
2022-12-05T14:12:51.005Z,29.27
2022-12-05T14:15:33.043Z,28.10
2022-12-05T14:18:11.199Z,31.23
2022-12-05T14:20:50.507Z,24.77
2022-12-05T14:23:55.776Z,26.40
2022-12-05T14:26:49.486Z,21.23
2022-12-05T14:29:39.996Z,23.27
2022-12-05T14:32:23.618Z,26.33
2022-12-05T14:34:58.818Z,30.47
2022-12-05T14:37:31.055Z,27.73
2022-12-05T14:40:01.588Z,21.50
2022-12-05T14:42:41.777Z,24.20
2022-12-05T14:45:32.579Z,30.33
2022-12-05T14:48:04.537Z,25.03
2022-12-05T14:50:42.632Z,25.70
2022-12-05T14:53:33.175Z,29.43
2022-12-05T14:56:17.232Z,31.00
2022-12-05T14:58:50.134Z,25.20
2022-12-05T15:01:22.244Z,21.47
2022-12-05T15:04:16.078Z,21.57
2022-12-05T15:06:50.196Z,24.53
2022-12-05T15:09:38.185Z,29.10
2022-12-05T15:12:12.325Z,27.50
2022-12-05T15:14:49.122Z,24.57
2022-12-05T15:17:24.092Z,24.33
2022-12-05T15:20:00.108Z,31.73
2022-12-05T15:22:30.394Z,39.23
2022-12-05T15:24:58.740Z,24.67
2022-12-05T15:27:27.031Z,32.63
2022-12-05T15:29:56.697Z,24.03
2022-12-05T15:32:28.711Z,25.13
2022-12-05T15:35:05.053Z,25.97
2022-12-05T15:37:47.928Z,28.40
2022-12-05T15:40:18.998Z,17.50
2022-12-05T15:42:48.803Z,24.10
2022-12-05T15:45:23.876Z,26.77
2022-12-05T15:47:56.911Z,23.20
2022-12-05T15:50:36.131Z,22.17
2022-12-05T15:53:09.104Z,26.87
2022-12-05T15:55:42.584Z,23.40
2022-12-05T15:58:19.453Z,24.20
2022-12-05T16:00:53.594Z,24.90
2022-12-05T16:03:25.483Z,29.63
2022-12-05T16:06:00.906Z,28.53
2022-12-05T16:08:40.482Z,22.93
2022-12-05T16:11:09.902Z,29.27
2022-12-05T16:13:38.788Z,25.27
2022-12-05T16:16:07.463Z,33.83
2022-12-05T16:18:38.055Z,30.73
2022-12-05T16:21:38.534Z,25.80
2022-12-05T16:24:09.451Z,33.30
2022-12-05T16:26:40.098Z,20.93
2022-12-05T16:29:25.524Z,20.63
2022-12-05T16:31:56.280Z,29.37
2022-12-05T16:34:26.083Z,22.90
2022-12-05T16:36:57.657Z,27.83
2022-12-05T16:39:26.950Z,21.83
2022-12-05T16:41:56.199Z,26.30
2022-12-05T16:45:11.410Z,24.73
2022-12-05T16:47:57.123Z,27.40
2022-12-05T16:50:30.488Z,22.80
2022-12-05T16:53:29.723Z,22.03
2022-12-05T16:56:00.361Z,27.67
2022-12-05T16:58:31.071Z,26.40
2022-12-05T17:01:04.298Z,26.53
2022-12-05T17:03:34.941Z,27.00
2022-12-05T17:06:04.035Z,25.77
2022-12-05T17:08:33.479Z,28.37
2022-12-05T17:11:03.754Z,24.27
2022-12-05T17:13:32.637Z,25.20
2022-12-05T17:16:00.859Z,28.47
2022-12-05T17:18:31.726Z,27.60
2022-12-05T17:21:03.064Z,27.07
2022-12-05T17:23:31.098Z,22.37
2022-12-05T17:26:00.782Z,30.37
2022-12-05T17:28:28.814Z,32.90
2022-12-05T17:30:57.385Z,36.97
2022-12-05T17:33:25.523Z,26.80
2022-12-05T17:35:53.507Z,32.10
2022-12-05T17:38:22.114Z,31.43
2022-12-05T17:40:50.128Z,40.07
2022-12-05T17:43:24.777Z,32.37
2022-12-05T17:45:54.692Z,36.37
2022-12-05T17:48:22.993Z,23.80
2022-12-05T17:50:51.111Z,32.53
2022-12-05T17:53:22.978Z,34.33
2022-12-05T17:55:51.454Z,33.23
2022-12-05T17:58:21.142Z,28.53
2022-12-05T18:00:49.296Z,29.00
2022-12-05T18:03:18.984Z,28.33
2022-12-05T18:05:47.315Z,24.63
2022-12-05T18:08:16.924Z,25.53
2022-12-05T18:10:46.612Z,26.00
2022-12-05T18:13:15.939Z,28.73
2022-12-05T18:15:48.170Z,29.03
2022-12-05T18:18:18.112Z,24.37
2022-12-05T18:20:46.531Z,29.73
2022-12-05T18:23:14.789Z,24.80
2022-12-05T18:25:43.003Z,16.37
2022-12-05T18:28:13.979Z,19.03
2022-12-05T18:30:44.022Z,17.10
2022-12-05T18:33:13.441Z,24.53
2022-12-05T18:35:42.557Z,21.00
2022-12-05T18:38:12.326Z,18.77
2022-12-05T18:40:40.381Z,18.60
2022-12-05T18:43:08.468Z,17.73
2022-12-05T18:45:36.491Z,18.60
2022-12-05T18:48:23.355Z,15.13
2022-12-05T18:50:54.736Z,22.23
2022-12-05T18:53:22.766Z,21.37
2022-12-05T18:56:13.403Z,12.47
2022-12-05T18:58:39.640Z,12.63
2022-12-05T19:01:09.383Z,14.57
2022-12-05T19:03:38.675Z,14.93
2022-12-05T19:06:14.838Z,19.30
2022-12-05T19:08:44.467Z,12.77
2022-12-05T19:11:13.440Z,17.27
2022-12-05T19:13:41.642Z,16.27
2022-12-05T19:16:14.005Z,10.50
2022-12-05T19:18:42.599Z,17.93
2022-12-05T19:21:10.658Z,14.53
2022-12-05T19:23:40.687Z,18.10
2022-12-05T19:26:09.649Z,11.30
2022-12-05T19:28:38.616Z,14.40
2022-12-05T19:31:08.656Z,13.33
2022-12-05T19:33:39.194Z,24.40
2022-12-05T19:36:10.106Z,11.87
2022-12-05T19:38:40.638Z,18.30
2022-12-05T19:41:10.339Z,12.83
2022-12-05T19:43:39.118Z,22.30
2022-12-05T19:46:09.119Z,16.30
2022-12-05T19:48:37.172Z,14.13
2022-12-05T19:51:06.028Z,14.27
2022-12-05T19:53:35.816Z,14.77
2022-12-05T19:56:11.269Z,18.87
2022-12-05T19:58:40.530Z,11.97
2022-12-05T20:01:09.872Z,13.47
2022-12-05T20:03:38.038Z,15.30
2022-12-05T20:06:07.062Z,15.40
2022-12-05T20:08:36.164Z,13.10
2022-12-05T20:11:07.407Z,15.47
2022-12-05T20:13:51.854Z,20.40
2022-12-05T20:16:21.756Z,12.63
2022-12-05T20:18:50.881Z,13.73
2022-12-05T20:21:22.133Z,13.80
2022-12-05T20:23:51.142Z,14.63
2022-12-05T20:26:23.248Z,12.53
2022-12-05T20:28:52.344Z,15.47
2022-12-05T20:31:22.873Z,13.83
2022-12-05T20:33:52.446Z,11.80
2022-12-05T20:36:22.302Z,13.17
2022-12-05T20:38:55.245Z,11.10
2022-12-05T20:41:25.425Z,16.13
2022-12-05T20:43:56.095Z,12.27
2022-12-05T20:46:25.000Z,11.70
2022-12-05T20:48:53.443Z,16.63
2022-12-05T20:51:23.679Z,15.00
2022-12-05T20:53:52.317Z,14.00
2022-12-05T20:56:22.479Z,16.63
2022-12-05T20:58:53.493Z,15.00
2022-12-05T21:01:23.474Z,11.80
2022-12-05T21:03:53.600Z,13.47
2022-12-05T21:06:25.053Z,14.53
2022-12-05T21:08:54.325Z,11.23
2022-12-05T21:11:23.368Z,16.73
2022-12-05T21:13:53.618Z,12.27
2022-12-05T21:16:23.089Z,13.60
2022-12-05T21:18:51.586Z,16.83
2022-12-05T21:21:21.889Z,12.73
2022-12-05T21:23:54.530Z,12.50
2022-12-05T21:26:24.059Z,13.47
2022-12-05T21:28:53.953Z,10.57
2022-12-05T21:31:24.490Z,16.50
2022-12-05T21:33:54.878Z,9.20
2022-12-05T21:36:24.240Z,11.20
2022-12-05T21:38:56.008Z,11.57
2022-12-05T21:41:24.827Z,10.70
2022-12-05T21:43:55.815Z,17.03
2022-12-05T21:46:24.699Z,13.43
2022-12-05T21:48:52.819Z,11.37
2022-12-05T21:51:21.693Z,13.77
2022-12-05T21:53:49.728Z,11.90
2022-12-05T21:56:20.074Z,9.63
2022-12-05T21:58:48.270Z,18.07
2022-12-05T22:01:20.993Z,12.90
2022-12-05T22:03:51.559Z,15.63
2022-12-05T22:06:19.630Z,8.33
2022-12-05T22:08:47.556Z,12.97
2022-12-05T22:11:17.979Z,7.70
2022-12-05T22:13:48.747Z,11.83
2022-12-05T22:16:18.729Z,14.83
2022-12-05T22:18:46.795Z,12.47
2022-12-05T22:21:16.541Z,12.90
2022-12-05T22:23:44.817Z,9.23
2022-12-05T22:26:15.235Z,12.17
2022-12-05T22:28:43.445Z,14.17
2022-12-05T22:31:13.126Z,7.47
2022-12-05T22:33:42.998Z,9.27
2022-12-05T22:36:13.384Z,9.57
2022-12-05T22:38:43.663Z,13.73
2022-12-05T22:41:14.255Z,10.43
2022-12-05T22:43:43.739Z,8.93
2022-12-05T22:46:13.625Z,8.93
2022-12-05T22:51:13.729Z,12.57
2022-12-05T22:53:42.448Z,10.63
2022-12-05T22:56:11.863Z,15.83
2022-12-05T22:58:40.844Z,9.63
2022-12-05T23:01:14.834Z,12.13
2022-12-05T23:03:46.208Z,12.27
2022-12-05T23:06:15.745Z,10.43
2022-12-05T23:08:45.087Z,8.73
2022-12-05T23:11:13.511Z,10.90
2022-12-05T23:13:42.234Z,10.47
2022-12-05T23:16:12.147Z,12.93
2022-12-05T23:18:47.850Z,9.37
2022-12-05T23:21:23.280Z,17.07
2022-12-05T23:23:53.371Z,10.90
2022-12-05T23:26:23.255Z,11.37
2022-12-05T23:28:51.620Z,12.53
2022-12-05T23:31:20.553Z,10.93
2022-12-05T23:33:51.501Z,13.53
2022-12-05T23:36:21.750Z,18.80
2022-12-05T23:38:50.166Z,15.97
2022-12-05T23:41:19.875Z,10.13
2022-12-05T23:43:49.690Z,12.90
2022-12-05T23:46:20.519Z,15.77
2022-12-05T23:48:49.290Z,11.47
2022-12-05T23:51:21.330Z,10.57
2022-12-05T23:53:53.695Z,11.77
2022-12-05T23:56:23.846Z,12.43
2022-12-05T23:58:52.610Z,8.93
